sensor_id;sensor_type;location;lat;lon;timestamp;P1;durP1;ratioP1;P2;durP2;ratioP2
73599;SDS011;61877;48.246;9.220;2022-10-30T00:02:24;18.30;;;5.97;;
73599;SDS011;61877;48.246;9.220;2022-10-30T00:04:50;14.13;;;5.77;;
73599;SDS011;61877;48.246;9.220;2022-10-30T00:07:15;12.68;;;5.80;;
73599;SDS011;61877;48.246;9.220;2022-10-30T00:09:42;14.60;;;5.60;;
73599;SDS011;61877;48.246;9.220;2022-10-30T00:12:07;14.30;;;5.55;;
73599;SDS011;61877;48.246;9.220;2022-10-30T00:14:33;14.27;;;5.77;;
73599;SDS011;61877;48.246;9.220;2022-10-30T00:16:58;15.23;;;7.00;;
73599;SDS011;61877;48.246;9.220;2022-10-30T00:19:24;17.00;;;6.50;;
73599;SDS011;61877;48.246;9.220;2022-10-30T00:21:49;18.85;;;7.32;;
73599;SDS011;61877;48.246;9.220;2022-10-30T00:24:15;15.53;;;7.40;;
73599;SDS011;61877;48.246;9.220;2022-10-30T00:26:41;16.43;;;7.53;;
73599;SDS011;61877;48.246;9.220;2022-10-30T00:29:07;13.95;;;5.88;;
73599;SDS011;61877;48.246;9.220;2022-10-30T00:31:32;16.17;;;7.37;;
73599;SDS011;61877;48.246;9.220;2022-10-30T00:33:58;17.90;;;8.20;;
73599;SDS011;61877;48.246;9.220;2022-10-30T00:36:23;17.90;;;7.80;;
73599;SDS011;61877;48.246;9.220;2022-10-30T00:38:49;15.70;;;7.43;;
73599;SDS011;61877;48.246;9.220;2022-10-30T00:41:15;15.47;;;7.30;;
73599;SDS011;61877;48.246;9.220;2022-10-30T00:43:43;15.00;;;7.00;;
73599;SDS011;61877;48.246;9.220;2022-10-30T00:46:13;16.15;;;6.78;;
73599;SDS011;61877;48.246;9.220;2022-10-30T00:48:42;19.25;;;6.53;;
73599;SDS011;61877;48.246;9.220;2022-10-30T00:51:10;15.23;;;6.88;;
73599;SDS011;61877;48.246;9.220;2022-10-30T00:53:36;15.50;;;5.90;;
73599;SDS011;61877;48.246;9.220;2022-10-30T00:56:03;15.43;;;5.90;;
73599;SDS011;61877;48.246;9.220;2022-10-30T00:58:31;16.88;;;7.10;;
73599;SDS011;61877;48.246;9.220;2022-10-30T01:01:01;13.88;;;5.70;;
73599;SDS011;61877;48.246;9.220;2022-10-30T01:03:31;13.93;;;6.00;;
73599;SDS011;61877;48.246;9.220;2022-10-30T01:05:59;14.33;;;5.60;;
73599;SDS011;61877;48.246;9.220;2022-10-30T01:08:28;13.57;;;5.53;;
73599;SDS011;61877;48.246;9.220;2022-10-30T01:10:54;12.13;;;5.57;;
73599;SDS011;61877;48.246;9.220;2022-10-30T01:13:22;14.02;;;5.45;;
73599;SDS011;61877;48.246;9.220;2022-10-30T01:15:57;14.80;;;5.95;;
73599;SDS011;61877;48.246;9.220;2022-10-30T01:18:37;13.57;;;5.97;;
73599;SDS011;61877;48.246;9.220;2022-10-30T01:21:11;12.52;;;6.15;;
73599;SDS011;61877;48.246;9.220;2022-10-30T01:23:47;13.75;;;5.68;;
73599;SDS011;61877;48.246;9.220;2022-10-30T01:26:22;13.27;;;5.40;;
73599;SDS011;61877;48.246;9.220;2022-10-30T01:28:58;16.20;;;5.70;;
73599;SDS011;61877;48.246;9.220;2022-10-30T01:31:40;14.47;;;5.37;;
73599;SDS011;61877;48.246;9.220;2022-10-30T01:34:17;14.38;;;5.50;;
73599;SDS011;61877;48.246;9.220;2022-10-30T01:36:45;12.68;;;5.60;;
73599;SDS011;61877;48.246;9.220;2022-10-30T01:39:15;11.30;;;5.32;;
73599;SDS011;61877;48.246;9.220;2022-10-30T01:41:43;12.23;;;5.10;;
73599;SDS011;61877;48.246;9.220;2022-10-30T01:44:09;13.10;;;5.43;;
73599;SDS011;61877;48.246;9.220;2022-10-30T01:46:47;14.70;;;6.00;;
73599;SDS011;61877;48.246;9.220;2022-10-30T01:49:29;14.55;;;6.47;;
73599;SDS011;61877;48.246;9.220;2022-10-30T01:52:10;17.20;;;6.37;;
73599;SDS011;61877;48.246;9.220;2022-10-30T01:54:44;16.08;;;5.95;;
73599;SDS011;61877;48.246;9.220;2022-10-30T01:57:17;14.07;;;6.20;;
73599;SDS011;61877;48.246;9.220;2022-10-30T01:59:57;13.90;;;5.78;;
73599;SDS011;61877;48.246;9.220;2022-10-30T02:02:27;13.77;;;6.53;;
73599;SDS011;61877;48.246;9.220;2022-10-30T02:04:53;15.33;;;6.40;;
73599;SDS011;61877;48.246;9.220;2022-10-30T02:07:19;12.85;;;6.10;;
73599;SDS011;61877;48.246;9.220;2022-10-30T02:09:46;13.30;;;6.68;;
73599;SDS011;61877;48.246;9.220;2022-10-30T02:12:12;18.05;;;6.70;;
73599;SDS011;61877;48.246;9.220;2022-10-30T02:14:39;15.27;;;6.07;;
73599;SDS011;61877;48.246;9.220;2022-10-30T02:17:07;14.43;;;6.20;;
73599;SDS011;61877;48.246;9.220;2022-10-30T02:19:35;14.15;;;6.60;;
73599;SDS011;61877;48.246;9.220;2022-10-30T02:22:02;12.60;;;5.68;;
73599;SDS011;61877;48.246;9.220;2022-10-30T02:24:28;15.63;;;6.35;;
73599;SDS011;61877;48.246;9.220;2022-10-30T02:26:55;13.90;;;6.40;;
73599;SDS011;61877;48.246;9.220;2022-10-30T02:29:20;13.57;;;6.05;;
73599;SDS011;61877;48.246;9.220;2022-10-30T02:31:46;14.20;;;6.27;;
73599;SDS011;61877;48.246;9.220;2022-10-30T02:34:11;13.57;;;6.23;;
73599;SDS011;61877;48.246;9.220;2022-10-30T02:36:37;15.25;;;6.20;;
73599;SDS011;61877;48.246;9.220;2022-10-30T02:39:04;16.47;;;6.13;;
73599;SDS011;61877;48.246;9.220;2022-10-30T02:41:29;15.40;;;6.13;;
73599;SDS011;61877;48.246;9.220;2022-10-30T02:43:55;14.27;;;5.55;;
73599;SDS011;61877;48.246;9.220;2022-10-30T02:46:20;13.87;;;5.90;;
73599;SDS011;61877;48.246;9.220;2022-10-30T02:48:46;12.67;;;6.27;;
73599;SDS011;61877;48.246;9.220;2022-10-30T02:51:11;15.60;;;5.90;;
73599;SDS011;61877;48.246;9.220;2022-10-30T02:53:37;13.68;;;5.88;;
73599;SDS011;61877;48.246;9.220;2022-10-30T02:56:04;15.63;;;5.97;;
73599;SDS011;61877;48.246;9.220;2022-10-30T02:58:31;13.02;;;6.10;;
73599;SDS011;61877;48.246;9.220;2022-10-30T03:00:57;14.27;;;5.40;;
73599;SDS011;61877;48.246;9.220;2022-10-30T03:03:28;12.82;;;5.55;;
73599;SDS011;61877;48.246;9.220;2022-10-30T03:05:53;13.20;;;5.67;;
73599;SDS011;61877;48.246;9.220;2022-10-30T03:08:19;15.00;;;6.03;;
73599;SDS011;61877;48.246;9.220;2022-10-30T03:10:44;14.85;;;6.05;;
73599;SDS011;61877;48.246;9.220;2022-10-30T03:13:11;12.07;;;5.77;;
73599;SDS011;61877;48.246;9.220;2022-10-30T03:15:36;15.25;;;5.95;;
73599;SDS011;61877;48.246;9.220;2022-10-30T03:18:02;12.63;;;5.63;;
73599;SDS011;61877;48.246;9.220;2022-10-30T03:20:28;12.40;;;5.78;;
73599;SDS011;61877;48.246;9.220;2022-10-30T03:22:53;13.87;;;6.13;;
73599;SDS011;61877;48.246;9.220;2022-10-30T03:25:18;13.73;;;6.10;;
73599;SDS011;61877;48.246;9.220;2022-10-30T03:27:44;13.90;;;6.00;;
73599;SDS011;61877;48.246;9.220;2022-10-30T03:30:11;14.10;;;6.33;;
73599;SDS011;61877;48.246;9.220;2022-10-30T03:32:36;13.63;;;6.07;;
73599;SDS011;61877;48.246;9.220;2022-10-30T03:35:02;14.40;;;6.33;;
73599;SDS011;61877;48.246;9.220;2022-10-30T03:37:28;14.27;;;6.07;;
73599;SDS011;61877;48.246;9.220;2022-10-30T03:39:53;17.57;;;6.13;;
73599;SDS011;61877;48.246;9.220;2022-10-30T03:42:18;13.20;;;6.00;;
73599;SDS011;61877;48.246;9.220;2022-10-30T03:44:44;19.20;;;6.05;;
73599;SDS011;61877;48.246;9.220;2022-10-30T03:47:11;13.17;;;5.37;;
73599;SDS011;61877;48.246;9.220;2022-10-30T03:49:36;15.50;;;6.60;;
73599;SDS011;61877;48.246;9.220;2022-10-30T03:52:01;14.20;;;5.97;;
73599;SDS011;61877;48.246;9.220;2022-10-30T03:54:27;13.73;;;6.07;;
73599;SDS011;61877;48.246;9.220;2022-10-30T03:56:52;16.23;;;5.87;;
73599;SDS011;61877;48.246;9.220;2022-10-30T03:59:18;12.73;;;5.55;;
73599;SDS011;61877;48.246;9.220;2022-10-30T04:01:43;12.77;;;5.43;;
73599;SDS011;61877;48.246;9.220;2022-10-30T04:04:10;12.87;;;5.20;;
73599;SDS011;61877;48.246;9.220;2022-10-30T04:06:35;13.00;;;5.80;;
73599;SDS011;61877;48.246;9.220;2022-10-30T04:09:01;13.07;;;5.87;;
73599;SDS011;61877;48.246;9.220;2022-10-30T04:11:26;13.65;;;5.30;;
73599;SDS011;61877;48.246;9.220;2022-10-30T04:13:52;13.10;;;5.30;;
73599;SDS011;61877;48.246;9.220;2022-10-30T04:16:17;14.37;;;5.90;;
73599;SDS011;61877;48.246;9.220;2022-10-30T04:18:43;12.80;;;5.17;;
73599;SDS011;61877;48.246;9.220;2022-10-30T04:21:10;12.35;;;5.68;;
73599;SDS011;61877;48.246;9.220;2022-10-30T04:23:35;13.43;;;5.30;;
73599;SDS011;61877;48.246;9.220;2022-10-30T04:26:01;15.10;;;5.50;;
73599;SDS011;61877;48.246;9.220;2022-10-30T04:28:26;13.53;;;5.90;;
73599;SDS011;61877;48.246;9.220;2022-10-30T04:30:51;15.97;;;5.90;;
73599;SDS011;61877;48.246;9.220;2022-10-30T04:33:17;14.63;;;6.15;;
73599;SDS011;61877;48.246;9.220;2022-10-30T04:35:42;12.53;;;5.30;;
73599;SDS011;61877;48.246;9.220;2022-10-30T04:38:10;12.03;;;5.53;;
73599;SDS011;61877;48.246;9.220;2022-10-30T04:40:37;12.52;;;5.57;;
73599;SDS011;61877;48.246;9.220;2022-10-30T04:43:04;13.95;;;5.88;;
73599;SDS011;61877;48.246;9.220;2022-10-30T04:45:31;13.52;;;5.70;;
73599;SDS011;61877;48.246;9.220;2022-10-30T04:47:59;15.33;;;5.73;;
73599;SDS011;61877;48.246;9.220;2022-10-30T04:50:25;14.55;;;5.32;;
73599;SDS011;61877;48.246;9.220;2022-10-30T04:52:56;13.37;;;5.63;;
73599;SDS011;61877;48.246;9.220;2022-10-30T04:55:24;14.88;;;5.40;;
73599;SDS011;61877;48.246;9.220;2022-10-30T04:57:49;13.98;;;5.65;;
73599;SDS011;61877;48.246;9.220;2022-10-30T05:00:19;14.90;;;5.60;;
73599;SDS011;61877;48.246;9.220;2022-10-30T05:02:45;12.77;;;5.53;;
73599;SDS011;61877;48.246;9.220;2022-10-30T05:05:10;12.77;;;5.47;;
73599;SDS011;61877;48.246;9.220;2022-10-30T05:07:36;13.57;;;5.53;;
73599;SDS011;61877;48.246;9.220;2022-10-30T05:10:01;13.80;;;5.68;;
73599;SDS011;61877;48.246;9.220;2022-10-30T05:12:28;12.07;;;4.77;;
73599;SDS011;61877;48.246;9.220;2022-10-30T05:14:54;12.70;;;5.28;;
73599;SDS011;61877;48.246;9.220;2022-10-30T05:17:19;11.43;;;5.30;;
73599;SDS011;61877;48.246;9.220;2022-10-30T05:19:45;14.95;;;5.03;;
73599;SDS011;61877;48.246;9.220;2022-10-30T05:22:10;11.97;;;5.13;;
73599;SDS011;61877;48.246;9.220;2022-10-30T05:24:36;14.07;;;5.10;;
73599;SDS011;61877;48.246;9.220;2022-10-30T05:27:01;12.20;;;4.87;;
73599;SDS011;61877;48.246;9.220;2022-10-30T05:29:28;11.43;;;4.72;;
73599;SDS011;61877;48.246;9.220;2022-10-30T05:31:53;14.03;;;5.40;;
73599;SDS011;61877;48.246;9.220;2022-10-30T05:34:19;14.60;;;5.60;;
73599;SDS011;61877;48.246;9.220;2022-10-30T05:36:44;10.90;;;4.73;;
73599;SDS011;61877;48.246;9.220;2022-10-30T05:39:10;11.67;;;5.10;;
73599;SDS011;61877;48.246;9.220;2022-10-30T05:41:35;13.63;;;5.17;;
73599;SDS011;61877;48.246;9.220;2022-10-30T05:44:00;13.00;;;5.07;;
73599;SDS011;61877;48.246;9.220;2022-10-30T05:46:27;14.10;;;5.50;;
73599;SDS011;61877;48.246;9.220;2022-10-30T05:48:53;12.05;;;5.22;;
73599;SDS011;61877;48.246;9.220;2022-10-30T05:51:18;10.47;;;5.00;;
73599;SDS011;61877;48.246;9.220;2022-10-30T05:53:46;11.20;;;5.10;;
73599;SDS011;61877;48.246;9.220;2022-10-30T05:56:12;15.32;;;5.25;;
73599;SDS011;61877;48.246;9.220;2022-10-30T05:58:37;12.50;;;4.40;;
73599;SDS011;61877;48.246;9.220;2022-10-30T06:01:04;11.27;;;4.53;;
73599;SDS011;61877;48.246;9.220;2022-10-30T06:03:31;11.02;;;4.38;;
73599;SDS011;61877;48.246;9.220;2022-10-30T06:05:57;11.05;;;4.65;;
73599;SDS011;61877;48.246;9.220;2022-10-30T06:08:22;12.30;;;4.60;;
73599;SDS011;61877;48.246;9.220;2022-10-30T06:10:48;11.33;;;4.70;;
73599;SDS011;61877;48.246;9.220;2022-10-30T06:13:13;13.57;;;5.30;;
73599;SDS011;61877;48.246;9.220;2022-10-30T06:15:38;12.17;;;5.10;;
73599;SDS011;61877;48.246;9.220;2022-10-30T06:18:04;10.23;;;5.00;;
73599;SDS011;61877;48.246;9.220;2022-10-30T06:20:31;13.40;;;5.70;;
73599;SDS011;61877;48.246;9.220;2022-10-30T06:22:57;13.20;;;5.68;;
73599;SDS011;61877;48.246;9.220;2022-10-30T06:25:24;14.43;;;5.30;;
73599;SDS011;61877;48.246;9.220;2022-10-30T06:27:50;14.63;;;6.18;;
73599;SDS011;61877;48.246;9.220;2022-10-30T06:30:16;13.90;;;7.28;;
73599;SDS011;61877;48.246;9.220;2022-10-30T06:32:42;16.10;;;8.47;;
73599;SDS011;61877;48.246;9.220;2022-10-30T06:35:07;18.10;;;8.55;;
73599;SDS011;61877;48.246;9.220;2022-10-30T06:37:34;14.53;;;7.10;;
73599;SDS011;61877;48.246;9.220;2022-10-30T06:40:00;14.70;;;7.05;;
73599;SDS011;61877;48.246;9.220;2022-10-30T06:42:25;14.80;;;6.90;;
73599;SDS011;61877;48.246;9.220;2022-10-30T06:44:51;14.65;;;6.60;;
73599;SDS011;61877;48.246;9.220;2022-10-30T06:47:16;13.23;;;5.93;;
73599;SDS011;61877;48.246;9.220;2022-10-30T06:49:42;12.90;;;5.40;;
73599;SDS011;61877;48.246;9.220;2022-10-30T06:52:08;13.48;;;5.10;;
73599;SDS011;61877;48.246;9.220;2022-10-30T06:54:35;10.13;;;5.30;;
73599;SDS011;61877;48.246;9.220;2022-10-30T06:57:01;13.10;;;7.80;;
73599;SDS011;61877;48.246;9.220;2022-10-30T06:59:26;14.32;;;5.82;;
73599;SDS011;61877;48.246;9.220;2022-10-30T07:01:52;12.93;;;6.17;;
73599;SDS011;61877;48.246;9.220;2022-10-30T07:04:17;17.90;;;7.20;;
73599;SDS011;61877;48.246;9.220;2022-10-30T07:06:43;13.17;;;6.07;;
73599;SDS011;61877;48.246;9.220;2022-10-30T07:09:08;12.93;;;5.53;;
73599;SDS011;61877;48.246;9.220;2022-10-30T07:11:35;13.07;;;5.93;;
73599;SDS011;61877;48.246;9.220;2022-10-30T07:14:01;13.80;;;5.17;;
73599;SDS011;61877;48.246;9.220;2022-10-30T07:16:27;11.88;;;5.15;;
73599;SDS011;61877;48.246;9.220;2022-10-30T07:18:52;13.27;;;5.47;;
73599;SDS011;61877;48.246;9.220;2022-10-30T07:21:18;13.87;;;5.90;;
73599;SDS011;61877;48.246;9.220;2022-10-30T07:23:43;16.98;;;6.15;;
73599;SDS011;61877;48.246;9.220;2022-10-30T07:26:08;17.30;;;6.30;;
73599;SDS011;61877;48.246;9.220;2022-10-30T07:28:35;17.20;;;7.27;;
73599;SDS011;61877;48.246;9.220;2022-10-30T07:31:01;16.25;;;7.85;;
73599;SDS011;61877;48.246;9.220;2022-10-30T07:33:27;18.10;;;8.50;;
73599;SDS011;61877;48.246;9.220;2022-10-30T07:35:52;14.77;;;7.90;;
73599;SDS011;61877;48.246;9.220;2022-10-30T07:38:17;15.80;;;7.87;;
73599;SDS011;61877;48.246;9.220;2022-10-30T07:40:43;16.47;;;7.77;;
73599;SDS011;61877;48.246;9.220;2022-10-30T07:43:08;15.25;;;7.18;;
73599;SDS011;61877;48.246;9.220;2022-10-30T07:45:35;13.77;;;7.33;;
73599;SDS011;61877;48.246;9.220;2022-10-30T07:48:01;16.60;;;7.13;;
73599;SDS011;61877;48.246;9.220;2022-10-30T07:50:26;14.50;;;7.00;;
73599;SDS011;61877;48.246;9.220;2022-10-30T07:52:52;13.95;;;6.75;;
73599;SDS011;61877;48.246;9.220;2022-10-30T07:55:17;15.27;;;6.77;;
73599;SDS011;61877;48.246;9.220;2022-10-30T07:57:43;13.82;;;6.38;;
73599;SDS011;61877;48.246;9.220;2022-10-30T08:00:09;14.93;;;7.03;;
73599;SDS011;61877;48.246;9.220;2022-10-30T08:02:41;13.25;;;6.88;;
73599;SDS011;61877;48.246;9.220;2022-10-30T08:05:07;16.95;;;8.38;;
73599;SDS011;61877;48.246;9.220;2022-10-30T08:07:34;16.60;;;7.87;;
73599;SDS011;61877;48.246;9.220;2022-10-30T08:10:01;16.33;;;7.30;;
73599;SDS011;61877;48.246;9.220;2022-10-30T08:12:27;17.50;;;7.65;;
73599;SDS011;61877;48.246;9.220;2022-10-30T08:14:52;18.70;;;7.77;;
73599;SDS011;61877;48.246;9.220;2022-10-30T08:17:18;13.85;;;7.00;;
73599;SDS011;61877;48.246;9.220;2022-10-30T08:19:45;14.63;;;6.27;;
73599;SDS011;61877;48.246;9.220;2022-10-30T08:22:11;13.52;;;6.85;;
73599;SDS011;61877;48.246;9.220;2022-10-30T08:24:37;16.00;;;6.43;;
73599;SDS011;61877;48.246;9.220;2022-10-30T08:27:02;14.93;;;5.57;;
73599;SDS011;61877;48.246;9.220;2022-10-30T08:29:28;13.07;;;5.72;;
73599;SDS011;61877;48.246;9.220;2022-10-30T08:31:53;14.17;;;6.10;;
73599;SDS011;61877;48.246;9.220;2022-10-30T08:34:19;13.60;;;5.70;;
73599;SDS011;61877;48.246;9.220;2022-10-30T08:36:48;12.80;;;6.00;;
73599;SDS011;61877;48.246;9.220;2022-10-30T08:39:13;15.10;;;6.30;;
73599;SDS011;61877;48.246;9.220;2022-10-30T08:41:39;15.50;;;6.97;;
73599;SDS011;61877;48.246;9.220;2022-10-30T08:44:04;17.23;;;6.80;;
73599;SDS011;61877;48.246;9.220;2022-10-30T08:46:30;17.40;;;7.97;;
73599;SDS011;61877;48.246;9.220;2022-10-30T08:48:55;14.70;;;7.17;;
73599;SDS011;61877;48.246;9.220;2022-10-30T08:51:21;13.43;;;5.88;;
73599;SDS011;61877;48.246;9.220;2022-10-30T08:53:48;12.27;;;5.27;;
73599;SDS011;61877;48.246;9.220;2022-10-30T08:56:14;15.18;;;6.28;;
73599;SDS011;61877;48.246;9.220;2022-10-30T08:58:40;13.27;;;6.10;;
73599;SDS011;61877;48.246;9.220;2022-10-30T09:01:05;15.40;;;6.37;;
73599;SDS011;61877;48.246;9.220;2022-10-30T09:03:30;20.13;;;7.90;;
73599;SDS011;61877;48.246;9.220;2022-10-30T09:05:56;15.70;;;8.35;;
73599;SDS011;61877;48.246;9.220;2022-10-30T09:08:22;17.50;;;8.23;;
73599;SDS011;61877;48.246;9.220;2022-10-30T09:10:53;16.23;;;8.65;;
73599;SDS011;61877;48.246;9.220;2022-10-30T09:13:19;16.40;;;8.20;;
73599;SDS011;61877;48.246;9.220;2022-10-30T09:15:45;15.82;;;7.25;;
73599;SDS011;61877;48.246;9.220;2022-10-30T09:18:10;16.30;;;7.13;;
73599;SDS011;61877;48.246;9.220;2022-10-30T09:20:35;14.83;;;7.83;;
73599;SDS011;61877;48.246;9.220;2022-10-30T09:23:01;16.10;;;7.07;;
73599;SDS011;61877;48.246;9.220;2022-10-30T09:25:26;16.80;;;7.80;;
73599;SDS011;61877;48.246;9.220;2022-10-30T09:27:53;14.90;;;6.97;;
73599;SDS011;61877;48.246;9.220;2022-10-30T09:30:18;15.50;;;6.75;;
73599;SDS011;61877;48.246;9.220;2022-10-30T09:32:44;16.10;;;7.00;;
73599;SDS011;61877;48.246;9.220;2022-10-30T09:35:10;15.30;;;6.50;;
73599;SDS011;61877;48.246;9.220;2022-10-30T09:37:35;16.23;;;5.78;;
73599;SDS011;61877;48.246;9.220;2022-10-30T09:40:02;12.27;;;5.45;;
73599;SDS011;61877;48.246;9.220;2022-10-30T09:42:34;14.93;;;5.47;;
73599;SDS011;61877;48.246;9.220;2022-10-30T09:45:19;13.07;;;5.75;;
73599;SDS011;61877;48.246;9.220;2022-10-30T09:48:02;13.73;;;4.65;;
73599;SDS011;61877;48.246;9.220;2022-10-30T09:50:37;9.23;;;4.07;;
73599;SDS011;61877;48.246;9.220;2022-10-30T09:53:13;10.90;;;3.87;;
73599;SDS011;61877;48.246;9.220;2022-10-30T09:55:49;12.38;;;4.00;;
73599;SDS011;61877;48.246;9.220;2022-10-30T09:58:23;11.35;;;4.10;;
73599;SDS011;61877;48.246;9.220;2022-10-30T10:01:01;9.65;;;4.43;;
73599;SDS011;61877;48.246;9.220;2022-10-30T10:03:40;11.25;;;4.13;;
73599;SDS011;61877;48.246;9.220;2022-10-30T10:06:16;13.13;;;3.93;;
73599;SDS011;61877;48.246;9.220;2022-10-30T10:08:44;11.00;;;4.38;;
73599;SDS011;61877;48.246;9.220;2022-10-30T10:11:13;14.25;;;4.45;;
73599;SDS011;61877;48.246;9.220;2022-10-30T10:13:44;10.00;;;3.83;;
73599;SDS011;61877;48.246;9.220;2022-10-30T10:16:15;10.57;;;4.32;;
73599;SDS011;61877;48.246;9.220;2022-10-30T10:18:45;10.47;;;4.07;;
73599;SDS011;61877;48.246;9.220;2022-10-30T10:21:14;11.55;;;3.92;;
73599;SDS011;61877;48.246;9.220;2022-10-30T10:23:46;11.60;;;4.10;;
73599;SDS011;61877;48.246;9.220;2022-10-30T10:26:18;8.95;;;3.53;;
73599;SDS011;61877;48.246;9.220;2022-10-30T10:28:54;10.68;;;3.80;;
73599;SDS011;61877;48.246;9.220;2022-10-30T10:31:34;9.60;;;3.43;;
73599;SDS011;61877;48.246;9.220;2022-10-30T10:37:22;11.35;;;3.70;;
73599;SDS011;61877;48.246;9.220;2022-10-30T10:39:59;10.90;;;3.50;;
73599;SDS011;61877;48.246;9.220;2022-10-30T10:42:38;10.35;;;3.50;;
73599;SDS011;61877;48.246;9.220;2022-10-30T10:45:16;9.70;;;3.37;;
73599;SDS011;61877;48.246;9.220;2022-10-30T10:47:55;7.15;;;2.70;;
73599;SDS011;61877;48.246;9.220;2022-10-30T10:50:34;10.65;;;3.28;;
73599;SDS011;61877;48.246;9.220;2022-10-30T10:53:06;8.45;;;3.30;;
73599;SDS011;61877;48.246;9.220;2022-10-30T10:55:36;10.18;;;3.40;;
73599;SDS011;61877;48.246;9.220;2022-10-30T10:58:04;8.27;;;2.93;;
73599;SDS011;61877;48.246;9.220;2022-10-30T11:00:35;9.60;;;2.90;;
73599;SDS011;61877;48.246;9.220;2022-10-30T11:03:04;10.32;;;3.53;;
73599;SDS011;61877;48.246;9.220;2022-10-30T11:05:34;9.70;;;3.25;;
73599;SDS011;61877;48.246;9.220;2022-10-30T11:08:09;8.32;;;2.80;;
73599;SDS011;61877;48.246;9.220;2022-10-30T11:10:37;9.00;;;3.33;;
73599;SDS011;61877;48.246;9.220;2022-10-30T11:13:03;10.25;;;3.00;;
73599;SDS011;61877;48.246;9.220;2022-10-30T11:15:34;9.03;;;2.90;;
73599;SDS011;61877;48.246;9.220;2022-10-30T11:18:07;10.25;;;3.10;;
73599;SDS011;61877;48.246;9.220;2022-10-30T11:20:35;9.77;;;3.30;;
73599;SDS011;61877;48.246;9.220;2022-10-30T11:26:00;9.50;;;3.30;;
73599;SDS011;61877;48.246;9.220;2022-10-30T11:28:31;9.73;;;3.60;;
73599;SDS011;61877;48.246;9.220;2022-10-30T11:31:15;8.98;;;2.67;;
73599;SDS011;61877;48.246;9.220;2022-10-30T11:33:43;8.00;;;3.00;;
73599;SDS011;61877;48.246;9.220;2022-10-30T11:36:09;7.38;;;2.60;;
73599;SDS011;61877;48.246;9.220;2022-10-30T11:38:35;7.00;;;2.83;;
73599;SDS011;61877;48.246;9.220;2022-10-30T11:41:00;9.07;;;2.80;;
73599;SDS011;61877;48.246;9.220;2022-10-30T11:43:26;10.07;;;2.70;;
73599;SDS011;61877;48.246;9.220;2022-10-30T11:45:52;8.67;;;2.83;;
73599;SDS011;61877;48.246;9.220;2022-10-30T11:48:19;9.82;;;2.88;;
73599;SDS011;61877;48.246;9.220;2022-10-30T11:50:49;10.68;;;2.90;;
73599;SDS011;61877;48.246;9.220;2022-10-30T11:53:18;7.47;;;2.80;;
73599;SDS011;61877;48.246;9.220;2022-10-30T11:55:46;7.88;;;2.70;;
73599;SDS011;61877;48.246;9.220;2022-10-30T11:58:19;7.30;;;2.73;;
73599;SDS011;61877;48.246;9.220;2022-10-30T12:00:47;9.63;;;2.83;;
73599;SDS011;61877;48.246;9.220;2022-10-30T12:03:25;8.98;;;3.20;;
73599;SDS011;61877;48.246;9.220;2022-10-30T12:05:54;9.40;;;2.95;;
73599;SDS011;61877;48.246;9.220;2022-10-30T12:08:31;9.82;;;2.78;;
73599;SDS011;61877;48.246;9.220;2022-10-30T12:10:58;10.30;;;2.83;;
73599;SDS011;61877;48.246;9.220;2022-10-30T12:13:24;11.13;;;2.58;;
73599;SDS011;61877;48.246;9.220;2022-10-30T12:16:02;11.63;;;2.70;;
73599;SDS011;61877;48.246;9.220;2022-10-30T12:18:33;9.35;;;2.90;;
73599;SDS011;61877;48.246;9.220;2022-10-30T12:21:00;9.95;;;2.78;;
73599;SDS011;61877;48.246;9.220;2022-10-30T12:23:27;8.68;;;2.50;;
73599;SDS011;61877;48.246;9.220;2022-10-30T12:25:53;10.40;;;2.70;;
73599;SDS011;61877;48.246;9.220;2022-10-30T12:28:22;9.73;;;2.60;;
73599;SDS011;61877;48.246;9.220;2022-10-30T12:30:50;10.05;;;2.30;;
73599;SDS011;61877;48.246;9.220;2022-10-30T12:33:19;8.52;;;2.58;;
73599;SDS011;61877;48.246;9.220;2022-10-30T12:35:51;10.18;;;2.65;;
73599;SDS011;61877;48.246;9.220;2022-10-30T12:38:22;9.30;;;2.50;;
73599;SDS011;61877;48.246;9.220;2022-10-30T12:40:57;7.77;;;2.30;;
73599;SDS011;61877;48.246;9.220;2022-10-30T12:43:27;7.40;;;2.05;;
73599;SDS011;61877;48.246;9.220;2022-10-30T12:46:00;8.95;;;2.50;;
73599;SDS011;61877;48.246;9.220;2022-10-30T12:48:40;8.60;;;2.50;;
73599;SDS011;61877;48.246;9.220;2022-10-30T12:51:13;10.85;;;2.47;;
73599;SDS011;61877;48.246;9.220;2022-10-30T12:53:47;9.33;;;2.10;;
73599;SDS011;61877;48.246;9.220;2022-10-30T12:56:18;7.15;;;2.30;;
73599;SDS011;61877;48.246;9.220;2022-10-30T12:58:49;11.85;;;2.35;;
73599;SDS011;61877;48.246;9.220;2022-10-30T13:01:23;9.68;;;2.20;;
73599;SDS011;61877;48.246;9.220;2022-10-30T13:03:54;6.50;;;1.92;;
73599;SDS011;61877;48.246;9.220;2022-10-30T13:06:30;7.53;;;2.00;;
73599;SDS011;61877;48.246;9.220;2022-10-30T13:09:03;6.70;;;2.17;;
73599;SDS011;61877;48.246;9.220;2022-10-30T13:11:41;9.77;;;2.63;;
73599;SDS011;61877;48.246;9.220;2022-10-30T13:14:14;10.73;;;2.42;;
73599;SDS011;61877;48.246;9.220;2022-10-30T13:16:41;8.48;;;2.38;;
73599;SDS011;61877;48.246;9.220;2022-10-30T13:19:08;9.47;;;2.20;;
73599;SDS011;61877;48.246;9.220;2022-10-30T13:21:36;9.02;;;2.30;;
73599;SDS011;61877;48.246;9.220;2022-10-30T13:24:11;7.82;;;2.22;;
73599;SDS011;61877;48.246;9.220;2022-10-30T13:26:43;8.15;;;2.33;;
73599;SDS011;61877;48.246;9.220;2022-10-30T13:29:16;9.83;;;2.30;;
73599;SDS011;61877;48.246;9.220;2022-10-30T13:35:25;8.77;;;2.13;;
73599;SDS011;61877;48.246;9.220;2022-10-30T13:38:10;9.35;;;2.20;;
73599;SDS011;61877;48.246;9.220;2022-10-30T13:43:55;9.53;;;1.80;;
73599;SDS011;61877;48.246;9.220;2022-10-30T13:46:57;8.32;;;2.20;;
73599;SDS011;61877;48.246;9.220;2022-10-30T13:49:44;8.48;;;2.00;;
73599;SDS011;61877;48.246;9.220;2022-10-30T13:55:23;9.18;;;2.58;;
73599;SDS011;61877;48.246;9.220;2022-10-30T13:57:59;11.97;;;2.80;;
73599;SDS011;61877;48.246;9.220;2022-10-30T14:00:41;7.97;;;2.22;;
73599;SDS011;61877;48.246;9.220;2022-10-30T14:03:34;7.10;;;2.00;;
73599;SDS011;61877;48.246;9.220;2022-10-30T14:06:33;9.93;;;2.30;;
73599;SDS011;61877;48.246;9.220;2022-10-30T14:11:59;10.50;;;2.60;;
73599;SDS011;61877;48.246;9.220;2022-10-30T14:14:46;7.45;;;2.30;;
73599;SDS011;61877;48.246;9.220;2022-10-30T14:17:15;8.10;;;1.80;;
73599;SDS011;61877;48.246;9.220;2022-10-30T14:23:04;9.27;;;2.20;;
73599;SDS011;61877;48.246;9.220;2022-10-30T14:25:33;9.40;;;2.33;;
73599;SDS011;61877;48.246;9.220;2022-10-30T14:27:58;10.68;;;2.38;;
73599;SDS011;61877;48.246;9.220;2022-10-30T14:30:26;8.63;;;1.80;;
73599;SDS011;61877;48.246;9.220;2022-10-30T14:32:52;7.63;;;2.00;;
73599;SDS011;61877;48.246;9.220;2022-10-30T14:35:31;9.02;;;1.98;;
73599;SDS011;61877;48.246;9.220;2022-10-30T14:38:14;10.80;;;2.33;;
73599;SDS011;61877;48.246;9.220;2022-10-30T14:40:53;8.75;;;1.98;;
73599;SDS011;61877;48.246;9.220;2022-10-30T14:43:41;8.80;;;1.80;;
73599;SDS011;61877;48.246;9.220;2022-10-30T14:46:17;8.67;;;1.87;;
73599;SDS011;61877;48.246;9.220;2022-10-30T14:48:51;8.23;;;2.00;;
73599;SDS011;61877;48.246;9.220;2022-10-30T14:51:27;7.53;;;1.80;;
73599;SDS011;61877;48.246;9.220;2022-10-30T14:53:59;7.88;;;1.83;;
73599;SDS011;61877;48.246;9.220;2022-10-30T14:56:32;9.98;;;1.90;;
73599;SDS011;61877;48.246;9.220;2022-10-30T14:59:08;9.20;;;2.17;;
73599;SDS011;61877;48.246;9.220;2022-10-30T15:01:45;8.05;;;1.90;;
73599;SDS011;61877;48.246;9.220;2022-10-30T15:04:18;11.18;;;2.15;;
73599;SDS011;61877;48.246;9.220;2022-10-30T15:07:00;7.30;;;2.10;;
73599;SDS011;61877;48.246;9.220;2022-10-30T15:09:38;8.57;;;2.30;;
73599;SDS011;61877;48.246;9.220;2022-10-30T15:12:19;9.70;;;2.70;;